Montréal / Saint-Hubert Airport

CYHU · Quebec, Canada

METAR history CYHU · Montréal / Saint-Hubert Airport

Below you see METARs of the last few days. Select a year to browse through older METARs, from the year 2007 onwards.

April 22, 2024

Time Code Weather Temp. Visibility Ceiling Wind METAR/SPECI
06:00
V
-2 °C 9 mi - 290° 290° 7 kt METAR CYHU 221000Z AUTO 29007KT 9SM CLR M02/M10 A3004 RMK SLP174
05:00
V
-2 °C 9 mi - 310° 310° 5 kt METAR CYHU 220900Z AUTO 31005KT 9SM FEW044 M02/M09 A3002 RMK SLP168
04:00
V
-1 °C 9 mi - 300° 300° 10 - 17 kt METAR CYHU 220800Z AUTO 30010G17KT 9SM CLR M01/M09 A2999 RMK SLP158
03:00
V
0 °C 9 mi - 300° 300° 10 - 18 kt METAR CYHU 220700Z AUTO 30010G18KT 9SM CLR 00/M09 A2996 RMK SLP149
02:00
V
1 °C 9 mi - 300° 300° 13 - 20 kt METAR CYHU 220600Z AUTO 30013G20KT 9SM CLR 01/M08 A2994 RMK SLP140
01:00
V
2 °C 9 mi - 300° 300° 14 - 22 kt METAR CYHU 220500Z AUTO 30014G22KT 9SM FEW086 02/M05 A2991 RMK SLP132
00:00
V
2 °C 9 mi 4,000 ft 300° 300° 8 - 16 kt METAR CYHU 220400Z AUTO 30008G16KT 9SM SCT017 BKN040 BKN066 OVC082 02/M00 A2987 RMK SLP118

April 21, 2024

Time Code Weather Temp. Visibility Ceiling Wind METAR/SPECI
23:55
V
2 °C 9 mi 3,800 ft 310° 310° 9 - 20 kt METAR CYHU 220355Z AUTO 31009G20KT 9SM SCT017 BKN038 BKN055 OVC068 02/00 A2986 RMK SLP116
23:49
M
2 °C 9 mi 1,700 ft 310° 310° 14 - 22 kt METAR CYHU 220349Z AUTO 31014G22KT 9SM -RA BKN017 BKN038 OVC047 02/00 A2986 RMK SLP114
23:27
V
3 °C 9 mi 4,900 ft 310° 310° 12 - 19 kt METAR CYHU 220327Z AUTO 31012G19KT 9SM -RA OVC049 03/00 A2985 RMK SLP111
23:00
V
2 °C 9 mi 4,900 ft 320° 320° 12 - 22 kt METAR CYHU 220300Z AUTO 32012G22KT 9SM SCT030 OVC049 02/01 A2984 RMK PCPN 0.5MM PAST HR SLP107
22:51
V
2 °C 9 mi 4,500 ft 320° 320° 12 - 22 kt METAR CYHU 220251Z AUTO 32012G22KT 9SM SCT034 BKN045 02/01 A2983 RMK PCPN 0.5MM PAST HR SLP105
22:43
V
2 °C 6 mi 3,200 ft 320° 320° 12 - 26 kt METAR CYHU 220243Z AUTO 32012G26KT 6SM TS -UP BR FEW009 BKN032 BKN043 BKN081 02/01 A2983 RMK PRESRR PCPN 0.5MM PAST HR SLP103
22:36
M
2 °C 4 mi 2,800 ft 310° 310° 15 - 33 kt METAR CYHU 220236Z AUTO 31015G33KT 240V320 4SM -TSRA -UP BR FEW009 BKN028 BKN039 BKN081 02/M00 A2983 RMK PRESRR PCPN 0.5MM PAST HR SLP105
22:44
V
2 °C 6 mi 3,400 ft 310° 310° 13 - 22 kt METAR CYHU 220244Z AUTO 31013G22KT 6SM -UP BR FEW009 BKN034 BKN043 BKN081 02/01 A2983 RMK PRESRR PCPN 0.5MM PAST HR SLP104
22:34
M
3 °C 4 mi 3,900 ft 310° 310° 19 - 33 kt METAR CYHU 220234Z AUTO 31019G33KT 240V320 4SM -TSRA SCT030 BKN039 BKN081 BKN160 03/M01 A2983 RMK PRESRR SLP103
22:28
V
6 °C 9 mi - 260° 260° 15 - 28 kt METAR CYHU 220228Z AUTO 26015G28KT 9SM TS FEW045 SCT160 06/M01 A2980 RMK PRESRR SLP094
22:00
V
6 °C 9 mi - 230° 230° 14 - 24 kt METAR CYHU 220200Z AUTO 23014G24KT 9SM FEW066 06/M01 A2978 RMK SLP089
21:00
V
7 °C 9 mi - 230° 230° 12 - 23 kt METAR CYHU 220100Z AUTO 23012G23KT 9SM FEW049 SCT060 07/M02 A2979 RMK SLP092
20:00
V
7 °C 9 mi - 230° 230° 14 - 25 kt METAR CYHU 220000Z AUTO 23014G25KT 9SM SCT066 07/M02 A2978 RMK SLP089
19:00
V
8 °C 9 mi 16,000 ft 220° 220° 17 - 22 kt METAR CYHU 212300Z AUTO 22017G22KT 9SM BKN160 BKN180 08/M03 A2978 RMK SLP086
18:00
V
8 °C 9 mi 6,000 ft 230° 230° 19 - 26 kt METAR CYHU 212200Z AUTO 23019G26KT 9SM BKN060 BKN086 08/M03 A2978 RMK SLP089
17:00
V
8 °C 9 mi 6,600 ft 250° 250° 15 - 28 kt METAR CYHU 212100Z AUTO 25015G28KT 9SM OVC066 08/M03 A2979 RMK SLP092
16:00
V
8 °C 9 mi 5,500 ft 250° 250° 14 - 24 kt METAR CYHU 212000Z AUTO 25014G24KT 9SM BKN055 OVC069 08/M03 A2980 RMK SLP095
15:37
V
8 °C 9 mi 7,100 ft 240° 240° 19 - 27 kt METAR CYHU 211937Z AUTO 24019G27KT 9SM SCT049 OVC071 08/M03 A2981 RMK SLP096
15:26
V
7 °C 9 mi 4,900 ft 240° 240° 18 - 25 kt METAR CYHU 211926Z AUTO 24018G25KT 9SM -RA BKN049 OVC066 07/M03 A2981 RMK SLP097
15:00
V
7 °C 9 mi 5,500 ft 240° 240° 15 - 25 kt METAR CYHU 211900Z AUTO 24015G25KT 9SM OVC055 07/M03 A2982 RMK SLP100
14:12
V
8 °C 9 mi 4,600 ft 250° 250° 15 - 22 kt METAR CYHU 211812Z AUTO 25015G22KT 9SM BKN046 OVC066 08/M02 A2982 RMK SLP102
14:00
V
7 °C 9 mi 4,800 ft 240° 240° 17 - 24 kt METAR CYHU 211800Z AUTO 24017G24KT 9SM -RA OVC048 07/M02 A2983 RMK SLP105
13:37
V
7 °C 9 mi 5,000 ft 230° 230° 14 - 20 kt METAR CYHU 211737Z AUTO 23014G20KT 9SM BKN050 OVC060 07/M02 A2983 RMK SLP106
13:25
V
7 °C 9 mi 5,000 ft 240° 240° 13 - 19 kt METAR CYHU 211725Z AUTO 24013G19KT 9SM -RA FEW043 BKN050 OVC060 07/M01 A2984 RMK SLP107
13:00
V
7 °C 9 mi 7,100 ft 250° 250° 16 - 23 kt METAR CYHU 211700Z AUTO 25016G23KT 9SM SCT050 OVC071 07/M02 A2984 RMK SLP108
12:00
V
8 °C 9 mi 7,600 ft 250° 250° 20 - 27 kt METAR CYHU 211600Z AUTO 25020G27KT 9SM BKN076 BKN200 08/M01 A2986 RMK SLP114
11:00
V
6 °C 9 mi 7,900 ft 260° 260° 14 - 22 kt METAR CYHU 211500Z AUTO 26014G22KT 9SM FEW066 OVC079 06/M00 A2988 RMK SLP121
10:00
V
6 °C 9 mi 8,800 ft 260° 260° 14 - 22 kt METAR CYHU 211400Z AUTO 26014G22KT 9SM SCT076 OVC088 06/00 A2989 RMK SLP125
09:00
V
5 °C 9 mi 8,100 ft 250° 250° 16 - 24 kt METAR CYHU 211300Z AUTO 25016G24KT 9SM OVC081 05/M02 A2990 RMK SLP129
08:00
V
6 °C 9 mi 8,100 ft 240° 240° 15 - 22 kt METAR CYHU 211200Z AUTO 24015G22KT 9SM BKN081 06/M02 A2990 RMK SLP129
07:00
V
4 °C 9 mi 7,600 ft 250° 250° 16 - 22 kt METAR CYHU 211100Z AUTO 25016G22KT 9SM OVC076 04/M02 A2990 RMK SLP127
06:00
V
4 °C 9 mi - 250° 250° 16 - 22 kt METAR CYHU 211000Z AUTO 25016G22KT 9SM SCT076 04/M03 A2988 RMK SLP122
05:00
V
3 °C 9 mi - 240° 240° 14 - 19 kt METAR CYHU 210900Z AUTO 24014G19KT 9SM CLR 03/M02 A2987 RMK SLP119
04:00
V
4 °C 9 mi - 260° 260° 11 kt METAR CYHU 210800Z AUTO 26011KT 9SM CLR 04/M02 A2986 RMK SLP113
03:00
V
4 °C 9 mi - 260° 260° 11 - 17 kt METAR CYHU 210700Z AUTO 26011G17KT 9SM CLR 04/M01 A2986 RMK SLP116
02:00
V
5 °C 9 mi - 260° 260° 12 - 18 kt METAR CYHU 210600Z AUTO 26012G18KT 9SM CLR 05/00 A2988 RMK SLP122
01:00
V
5 °C 9 mi 4,400 ft 250° 250° 11 - 19 kt METAR CYHU 210500Z AUTO 25011G19KT 9SM BKN044 05/01 A2990 RMK SLP127
00:00
V
5 °C 9 mi - 250° 250° 13 - 18 kt METAR CYHU 210400Z AUTO 25013G18KT 9SM FEW091 05/01 A2990 RMK SLP127

April 20, 2024

Time Code Weather Temp. Visibility Ceiling Wind METAR/SPECI
23:00
V
6 °C 9 mi - 240° 240° 15 - 23 kt METAR CYHU 210300Z AUTO 24015G23KT 9SM FEW046 06/01 A2989 RMK SLP124
22:00
V
6 °C 9 mi - 240° 240° 11 - 17 kt METAR CYHU 210200Z AUTO 24011G17KT 9SM CLR 06/M00 A2989 RMK SLP124
21:00
V
7 °C 9 mi - 250° 250° 12 - 23 kt METAR CYHU 210100Z AUTO 25012G23KT 9SM CLR 07/M01 A2987 RMK SLP117
20:00
V
7 °C 9 mi 8,500 ft 240° 240° 13 - 20 kt METAR CYHU 210000Z AUTO 24013G20KT 9SM SCT045 SCT066 OVC085 07/01 A2984 RMK SLP108
19:00
V
8 °C 9 mi - 230° 230° 15 - 23 kt METAR CYHU 202300Z AUTO 23015G23KT 9SM SCT038 08/02 A2983 RMK SLP103
18:00
V
9 °C 9 mi 13,000 ft 260° 260° 15 - 23 kt METAR CYHU 202200Z AUTO 26015G23KT 9SM FEW040 SCT100 BKN130 09/01 A2981 RMK SLP097
17:00
V
10 °C 9 mi 4,400 ft 280° 280° 15 - 22 kt METAR CYHU 202100Z AUTO 28015G22KT 9SM BKN044 10/00 A2980 RMK SLP094
16:00
V
10 °C 9 mi - 250° 250° 13 kt METAR CYHU 202000Z AUTO 25013KT 9SM FEW110 10/01 A2979 RMK SLP092
15:00
V
10 °C 9 mi 13,000 ft 280° 280° 15 - 23 kt METAR CYHU 201900Z AUTO 28015G23KT 9SM BKN130 10/01 A2981 RMK SLP096
14:00
V
11 °C 9 mi - 260° 260° 14 - 20 kt METAR CYHU 201800Z AUTO 26014G20KT 230V330 9SM CLR 11/M01 A2981 RMK SLP098
13:00
V
11 °C 9 mi 8,900 ft 280° 280° 12 - 21 kt METAR CYHU 201700Z AUTO 28012G21KT 220V300 9SM SCT060 BKN089 BKN120 11/M02 A2983 RMK SLP105
12:00
V
11 °C 9 mi - 230° 230° 19 - 27 kt METAR CYHU 201600Z AUTO 23019G27KT 9SM SCT060 SCT079 SCT092 11/M01 A2984 RMK SLP108
11:00
V
10 °C 9 mi - 230° 230° 17 - 25 kt METAR CYHU 201500Z AUTO 23017G25KT 9SM FEW055 10/M02 A2985 RMK SLP112
10:00
V
9 °C 9 mi - 230° 230° 18 - 23 kt METAR CYHU 201400Z AUTO 23018G23KT 9SM CLR 09/M02 A2986 RMK SLP115
09:00
V
8 °C 9 mi - 250° 250° 15 - 23 kt METAR CYHU 201300Z AUTO 25015G23KT 9SM CLR 08/M02 A2988 RMK SLP121
08:00
V
7 °C 9 mi 18,000 ft 250° 250° 16 - 23 kt METAR CYHU 201200Z AUTO 25016G23KT 9SM FEW100 BKN180 BKN200 07/M03 A2989 RMK SLP126=
07:00
V
7 °C 9 mi 7,600 ft 250° 250° 16 - 25 kt METAR CYHU 201100Z AUTO 25016G25KT 9SM OVC076 07/M02 A2989 RMK SLP125=
06:00
V
8 °C 9 mi 7,600 ft 240° 240° 18 - 23 kt METAR CYHU 201000Z AUTO 24018G23KT 9SM OVC076 08/M01 A2987 RMK SLP117=
05:00
V
8 °C 9 mi 7,600 ft 240° 240° 13 - 19 kt METAR CYHU 200900Z AUTO 24013G19KT 9SM OVC076 08/01 A2986 RMK SLP114=
04:00
V
9 °C 9 mi 7,600 ft 230° 230° 12 - 17 kt METAR CYHU 200800Z AUTO 23012G17KT 9SM OVC076 09/01 A2986 RMK SLP114=
03:00
V
9 °C 9 mi 7,100 ft 240° 240° 12 - 17 kt METAR CYHU 200700Z AUTO 24012G17KT 9SM BKN071 OVC160 09/01 A2986 RMK SLP114=
02:00
V
9 °C 9 mi 6,600 ft 240° 240° 15 - 23 kt METAR CYHU 200600Z AUTO 24015G23KT 9SM BKN066 BKN078 OVC160 09/02 A2986 RMK SLP116=
Report a change